Home   Weather   USA   Austin   Past weeks
Flag for USA

Past Weather in Austin, Texas, USA — September 2018

Currently: 71 °F. Mild. (Weather station: Camp Mabry / Austin City, USA). See more current weather

September 2018 Weather in Austin — Graph

°F

High & Low Weather Summary for September 2018

 TemperatureHumidityPressure
High98 °F (Sep 1, 4:51 pm)94% (Sep 4, 2:05 am)30.17 "Hg (Sep 4, 2:05 am)
Low63 °F (Sep 27, 7:51 am)32% (Sep 1, 4:51 pm)29.78 "Hg (Sep 1, 6:51 pm)
Average78 °F77%29.96 "Hg
* Reported Sep 1 12:51 am — Sep 30 11:51 pm, Austin. Weather by CustomWeather, © 2023

Note: Actual official high and low records may vary slightly from our data, if they occured in-between our weather recording intervals... More about our weather records

Austin Weather History for September 1, 2018

Scroll right to see more
 ConditionsComfort  
Time TempWeatherWind HumidityBarometerVisibility
12:51 am
Sat, Sep 1
82 °FClear.5 mph70%29.89 "Hg10 mi
1:51 am80 °FClear.3 mph71%29.90 "Hg10 mi
2:51 am80 °FClear.No wind71%29.88 "Hg10 mi
3:51 am78 °FClear.3 mph76%29.88 "Hg10 mi
4:51 am78 °FClear.No wind76%29.88 "Hg10 mi
5:51 am77 °FClear.No wind79%29.88 "Hg10 mi
6:51 am76 °FPassing clouds.No wind82%29.90 "Hg10 mi
7:51 am77 °FPassing clouds.No wind79%29.91 "Hg10 mi
8:51 am80 °FSunny.3 mph76%29.92 "Hg10 mi
9:51 am85 °FSunny.No wind63%29.92 "Hg10 mi
10:51 am86 °FPassing clouds.No wind57%29.92 "Hg10 mi
11:51 am89 °FSunny.6 mph50%29.90 "Hg10 mi
12:51 pm90 °FPassing clouds.3 mph47%29.90 "Hg10 mi
1:51 pm97 °FPassing clouds.5 mph35%29.86 "Hg10 mi
3:51 pm97 °FPassing clouds.5 mph34%29.81 "Hg10 mi
4:51 pm98 °FSunny.5 mph32%29.79 "Hg10 mi
5:51 pm97 °FSunny.6 mph34%29.78 "Hg10 mi
6:51 pm96 °FSunny.6 mph34%29.78 "Hg10 mi
7:51 pm92 °FSunny.9 mph43%29.80 "Hg10 mi
8:51 pm91 °FClear.9 mph44%29.83 "Hg10 mi
9:51 pm89 °FPassing clouds.9 mph50%29.86 "Hg10 mi
10:51 pm86 °FClear.6 mph61%29.88 "Hg10 mi
11:36 pm84 °FThunderstorms. Clear.12 mph67%29.93 "Hg10 mi
11:51 pm84 °FClear.7 mph67%29.89 "Hg10 mi
Weather by CustomWeather, © 2023

See weather overview